createdAt,value
2017-03-15T20:48:11.997Z,23.62
2017-03-15T20:49:20.772Z,23.68
2017-03-15T20:50:29.905Z,23.69
2017-03-15T20:51:38.689Z,23.56
2017-03-15T20:52:47.469Z,23.65
2017-03-15T20:53:56.239Z,23.61
2017-03-15T20:55:05.040Z,23.68
2017-03-15T20:56:14.189Z,23.65
2017-03-15T20:57:22.932Z,23.68
2017-03-15T20:58:31.700Z,23.68
2017-03-15T20:59:40.465Z,23.66
2017-03-15T21:00:49.238Z,23.59
2017-03-15T21:01:58.205Z,23.68
2017-03-15T21:03:06.977Z,23.66
2017-03-15T21:04:16.077Z,23.63
2017-03-15T21:05:24.836Z,23.65
2017-03-15T21:06:33.606Z,23.66
2017-03-15T21:07:42.369Z,23.66
2017-03-15T21:08:51.436Z,23.62
2017-03-15T21:10:00.500Z,23.78
2017-03-15T21:11:09.225Z,23.69
2017-03-15T21:12:18.568Z,23.68
2017-03-15T21:13:27.535Z,23.68
2017-03-15T21:14:36.561Z,23.73
2017-03-15T21:15:45.595Z,23.73
2017-03-15T21:16:54.670Z,23.74
2017-03-15T21:18:03.886Z,23.68
2017-03-15T21:19:12.657Z,23.69
2017-03-15T21:20:21.660Z,23.71
2017-03-15T21:21:30.729Z,23.69
2017-03-15T21:22:39.461Z,23.78
2017-03-15T21:23:48.497Z,23.66
2017-03-15T21:24:57.564Z,23.65
2017-03-15T21:26:06.339Z,23.68
2017-03-15T21:27:15.055Z,23.71
2017-03-15T21:28:23.787Z,23.77
2017-03-15T21:29:32.860Z,23.69
2017-03-15T21:30:41.628Z,23.63
2017-03-15T21:31:50.402Z,23.71
2017-03-15T21:32:59.324Z,23.76
2017-03-15T21:34:08.049Z,23.71
2017-03-15T21:35:16.743Z,23.76
2017-03-15T21:36:25.475Z,23.71
2017-03-15T21:37:34.538Z,23.69
2017-03-15T21:38:43.268Z,23.76
2017-03-15T21:39:52.210Z,23.68
2017-03-15T21:41:00.969Z,23.68
2017-03-15T21:42:10.037Z,23.65
2017-03-15T21:43:19.106Z,23.73
2017-03-15T21:44:27.833Z,23.73
2017-03-15T21:45:36.883Z,23.63
2017-03-15T21:46:45.657Z,23.69
2017-03-15T21:47:54.380Z,23.66
2017-03-15T21:49:03.674Z,23.59
2017-03-15T21:50:12.670Z,23.71
2017-03-15T21:51:22.345Z,23.63
2017-03-15T21:52:31.418Z,23.66
2017-03-15T21:53:40.488Z,23.63
2017-03-15T21:54:49.275Z,23.65
2017-03-15T21:55:58.341Z,23.65
2017-03-15T21:57:07.410Z,23.66
2017-03-15T21:58:16.487Z,23.73
2017-03-15T21:59:25.865Z,23.68
2017-03-15T22:00:35.843Z,23.61
2017-03-15T22:01:44.564Z,23.59
2017-03-15T22:02:53.301Z,23.61
2017-03-15T22:04:02.366Z,23.59
2017-03-15T22:05:11.084Z,23.61
2017-03-15T22:06:20.170Z,23.59
2017-03-15T22:07:29.242Z,23.55
2017-03-15T22:08:38.307Z,23.61
2017-03-15T22:09:47.063Z,23.51
2017-03-15T22:10:56.129Z,23.62
2017-03-15T22:12:04.894Z,23.59
2017-03-15T22:13:13.658Z,23.59
2017-03-15T22:14:22.423Z,23.56
2017-03-15T22:15:31.495Z,23.55
2017-03-15T22:16:40.259Z,23.59
2017-03-15T22:17:49.014Z,23.61
2017-03-15T22:18:57.770Z,23.54
2017-03-15T22:20:06.537Z,23.51
2017-03-15T22:21:15.606Z,23.51
2017-03-15T22:22:24.375Z,23.54
2017-03-15T22:23:33.129Z,23.47
2017-03-15T22:24:41.924Z,23.54
2017-03-15T22:25:50.647Z,23.47
2017-03-15T22:26:59.342Z,23.47
2017-03-15T22:28:08.077Z,23.55
2017-03-15T22:29:16.835Z,23.54
2017-03-15T22:30:25.603Z,23.48
2017-03-15T22:31:34.325Z,23.46
2017-03-15T22:32:43.055Z,23.47
2017-03-15T22:33:52.023Z,23.5
2017-03-15T22:35:01.079Z,23.5
2017-03-15T22:36:10.753Z,23.48
2017-03-15T22:37:19.531Z,23.48
2017-03-15T22:38:28.250Z,23.5
2017-03-15T22:39:36.941Z,23.41
2017-03-15T22:40:45.674Z,23.41
2017-03-15T22:41:54.436Z,23.4
2017-03-15T22:43:03.200Z,23.4
2017-03-15T22:44:11.965Z,23.47
2017-03-15T22:45:20.721Z,23.48
2017-03-15T22:46:29.481Z,23.44
2017-03-15T22:47:38.243Z,23.47
2017-03-15T22:48:47.310Z,23.4
2017-03-15T22:49:56.380Z,23.43
2017-03-15T22:51:05.457Z,23.4
2017-03-15T22:52:14.212Z,23.43
2017-03-15T22:53:23.273Z,23.43
2017-03-15T22:54:32.241Z,23.4
2017-03-15T22:55:41.006Z,23.32
2017-03-15T22:56:49.770Z,23.4
2017-03-15T22:57:58.528Z,23.27
2017-03-15T22:59:07.556Z,23.37
2017-03-15T23:00:16.595Z,23.31
2017-03-15T23:01:25.365Z,23.34
2017-03-15T23:02:34.095Z,23.32
2017-03-15T23:03:42.830Z,23.2
2017-03-15T23:04:51.592Z,23.27
2017-03-15T23:06:00.658Z,23.28
2017-03-15T23:07:09.723Z,23.25
2017-03-15T23:08:18.479Z,23.27
2017-03-15T23:09:27.201Z,23.4
2017-03-15T23:10:36.235Z,23.32
2017-03-15T23:11:45.502Z,23.39
2017-03-15T23:12:54.262Z,23.32
2017-03-15T23:14:03.285Z,23.32
2017-03-15T23:15:12.004Z,23.31
2017-03-15T23:16:21.035Z,23.24
2017-03-15T23:17:29.755Z,23.25
2017-03-15T23:18:38.491Z,23.21
2017-03-15T23:19:47.561Z,23.24
2017-03-15T23:20:56.628Z,23.25
2017-03-15T23:22:05.584Z,23.28
2017-03-15T23:23:14.644Z,23.24
2017-03-15T23:24:23.667Z,23.24
2017-03-15T23:25:32.358Z,23.24
2017-03-15T23:26:41.713Z,23.2
2017-03-15T23:27:50.476Z,23.09
2017-03-15T23:28:59.244Z,23.25
2017-03-15T23:30:08.268Z,23.13
2017-03-15T23:31:16.961Z,23.17
2017-03-15T23:32:25.690Z,23.13
2017-03-15T23:33:34.453Z,23.15
2017-03-15T23:34:43.176Z,23.13
2017-03-15T23:35:51.915Z,23.1
2017-03-15T23:37:01.242Z,23.17
2017-03-15T23:38:09.978Z,23.15
2017-03-15T23:39:18.703Z,23.17
2017-03-15T23:40:27.747Z,23.2
2017-03-15T23:41:36.511Z,23.12
2017-03-15T23:42:45.568Z,23.18
2017-03-15T23:43:54.317Z,23.13
2017-03-15T23:45:03.041Z,23.17
2017-03-15T23:46:12.394Z,23.09
2017-03-15T23:47:21.415Z,23.06
2017-03-15T23:48:30.109Z,23.03
2017-03-15T23:49:38.833Z,23.1
2017-03-15T23:50:47.592Z,23.08
2017-03-15T23:51:56.359Z,23.08
2017-03-15T23:53:05.383Z,23.03
2017-03-15T23:54:14.420Z,23.05
2017-03-15T23:55:23.744Z,23.03
2017-03-15T23:56:32.441Z,23
2017-03-15T23:57:41.133Z,23.05
2017-03-15T23:58:49.870Z,23
2017-03-15T23:59:59.172Z,23.03
